Aérodrome :
LOGIN :

S'inscrire | Disclaimer

   EN    FR    IT 

 










Légende :    VFR   VFR Marginal   IFR   IFR Intensif   IFR Très Intensif
Visi : 
Plafond : 
>= 8 km
>= 3000ft
5 à 8 km
1000 à 3000 ft
1500m à 5 km
500 à 1000 ft
800 à 1500m
200 à 500 ft
< 800m
< 200 ft
Symboles :   Orages  Brouillard  Fortes neiges  Fortes précipitations  Vent > 20 kt
SIGMETs :   Divers  Orages  Givrage  Turbulence  Onde Orograph.  Cendres Volcan.







- Altitude de l'aérodrome : 14 ft
- Code IATA : BRE


EDDW - Bremen Neuenland

DERNIER METAR :
  • 210950Z 30011KT 9999 FEW022 SCT060 17/12 Q1022 NOSIG

METARs EXPIRÉS :
  • 210920Z 29010KT 9999 FEW020 BKN060 17/13 Q1022 NOSIG
  • 210850Z 27009KT 9999 FEW016TCU BKN060 16/13 Q1022 NOSIG
  • 210820Z 27008KT 9999 FEW024TCU BKN060 16/13 Q1022 NOSIG
  • 210750Z 27009KT 9999 FEW026 BKN070 15/13 Q1022 NOSIG
  • 210720Z 26008KT 9999 FEW033 SCT070 15/13 Q1022 NOSIG

TAF TAF EDDW
Valide du 21 à 06h jusqu'au 22 à 06h UTC


210500Z 2106/2206 28009KT 9999 SCT040
BECMG 2116/2119 VRB03KT
BECMG 2201/2204 4000 MIFG
PROB30
TEMPO 2203/2206 0600 FG BKN002
Pas de NOTAMs connus pour ce terrain.



MET'MAP, la Météo Aéronautique d'un coup d'oeil ! - Copyright ORBIFLY Décembre 2007 - Disclaimer

ORBIFLY MET'MAP TEAM :

Programmation & Développement : Alexandra Zaïnal
Conception & Développement : Baudouin d'Aumeries
Co-Programmation & Développement : Marc-Olivier Méhu
Soutien technique & logistique : Manuel Goepfert

Contact : metmap@orbifly.com




SOURCES & CREDITS :

   NOAA